sensor_id;sensor_type;location;lat;lon;timestamp;temperature;humidity
5711;DHT22;61291;52.524;13.422;2022-10-26T00:00:47;9.70;99.90
5711;DHT22;61291;52.524;13.422;2022-10-26T00:03:13;9.70;99.90
5711;DHT22;61291;52.524;13.422;2022-10-26T00:05:39;9.60;99.90
5711;DHT22;61291;52.524;13.422;2022-10-26T00:08:05;9.60;99.90
5711;DHT22;61291;52.524;13.422;2022-10-26T00:10:33;9.60;99.90
5711;DHT22;61291;52.524;13.422;2022-10-26T00:12:59;9.60;99.90
5711;DHT22;61291;52.524;13.422;2022-10-26T00:15:24;9.70;99.90
5711;DHT22;61291;52.524;13.422;2022-10-26T00:17:50;9.70;99.90
5711;DHT22;61291;52.524;13.422;2022-10-26T00:20:16;9.70;99.90
5711;DHT22;61291;52.524;13.422;2022-10-26T00:22:41;9.70;99.90
5711;DHT22;61291;52.524;13.422;2022-10-26T00:25:07;9.70;99.90
5711;DHT22;61291;52.524;13.422;2022-10-26T00:27:33;9.70;99.90
5711;DHT22;61291;52.524;13.422;2022-10-26T00:30:02;9.80;99.90
5711;DHT22;61291;52.524;13.422;2022-10-26T00:32:28;9.70;99.90
5711;DHT22;61291;52.524;13.422;2022-10-26T00:34:53;9.70;99.90
5711;DHT22;61291;52.524;13.422;2022-10-26T00:37:19;9.60;99.90
5711;DHT22;61291;52.524;13.422;2022-10-26T00:39:44;9.60;99.90
5711;DHT22;61291;52.524;13.422;2022-10-26T00:42:19;9.50;99.90
5711;DHT22;61291;52.524;13.422;2022-10-26T00:50:02;9.50;99.90
5711;DHT22;61291;52.524;13.422;2022-10-26T00:52:28;9.60;99.90
5711;DHT22;61291;52.524;13.422;2022-10-26T00:54:54;9.50;99.90
5711;DHT22;61291;52.524;13.422;2022-10-26T00:57:20;9.50;99.90
5711;DHT22;61291;52.524;13.422;2022-10-26T00:59:46;9.50;99.90
5711;DHT22;61291;52.524;13.422;2022-10-26T01:02:12;9.50;99.90
5711;DHT22;61291;52.524;13.422;2022-10-26T01:04:38;9.50;99.90
5711;DHT22;61291;52.524;13.422;2022-10-26T01:07:05;9.50;99.90
5711;DHT22;61291;52.524;13.422;2022-10-26T01:09:33;9.50;99.90
5711;DHT22;61291;52.524;13.422;2022-10-26T01:11:59;9.50;99.90
5711;DHT22;61291;52.524;13.422;2022-10-26T01:14:26;9.40;99.90
5711;DHT22;61291;52.524;13.422;2022-10-26T01:20:24;9.30;99.90
5711;DHT22;61291;52.524;13.422;2022-10-26T01:31:45;9.10;99.90
5711;DHT22;61291;52.524;13.422;2022-10-26T01:34:21;9.20;99.90
5711;DHT22;61291;52.524;13.422;2022-10-26T01:36:57;9.20;99.90
5711;DHT22;61291;52.524;13.422;2022-10-26T01:39:41;9.10;99.90
5711;DHT22;61291;52.524;13.422;2022-10-26T01:42:10;9.00;99.90
5711;DHT22;61291;52.524;13.422;2022-10-26T01:44:43;9.00;99.90
5711;DHT22;61291;52.524;13.422;2022-10-26T01:47:12;9.00;99.90
5711;DHT22;61291;52.524;13.422;2022-10-26T01:49:43;8.90;99.90
5711;DHT22;61291;52.524;13.422;2022-10-26T01:52:11;8.90;99.90
5711;DHT22;61291;52.524;13.422;2022-10-26T01:54:37;8.90;99.90
5711;DHT22;61291;52.524;13.422;2022-10-26T01:57:08;8.90;99.90
5711;DHT22;61291;52.524;13.422;2022-10-26T02:00:06;8.80;99.90
5711;DHT22;61291;52.524;13.422;2022-10-26T02:08:42;8.80;99.90
5711;DHT22;61291;52.524;13.422;2022-10-26T02:11:40;8.80;99.90
5711;DHT22;61291;52.524;13.422;2022-10-26T02:16:57;8.80;99.90
5711;DHT22;61291;52.524;13.422;2022-10-26T02:19:49;8.70;99.90
5711;DHT22;61291;52.524;13.422;2022-10-26T02:22:21;8.70;99.90
5711;DHT22;61291;52.524;13.422;2022-10-26T02:24:51;8.70;99.90
5711;DHT22;61291;52.524;13.422;2022-10-26T02:27:24;8.60;99.90
5711;DHT22;61291;52.524;13.422;2022-10-26T02:29:51;8.60;99.90
5711;DHT22;61291;52.524;13.422;2022-10-26T02:32:19;8.60;99.90
5711;DHT22;61291;52.524;13.422;2022-10-26T02:34:46;8.60;99.90
5711;DHT22;61291;52.524;13.422;2022-10-26T02:37:15;8.60;99.90
5711;DHT22;61291;52.524;13.422;2022-10-26T02:39:42;8.50;99.90
5711;DHT22;61291;52.524;13.422;2022-10-26T02:42:09;8.60;99.90
5711;DHT22;61291;52.524;13.422;2022-10-26T02:44:43;8.60;99.90
5711;DHT22;61291;52.524;13.422;2022-10-26T02:47:10;8.60;99.90
5711;DHT22;61291;52.524;13.422;2022-10-26T02:49:36;8.60;99.90
5711;DHT22;61291;52.524;13.422;2022-10-26T02:52:08;8.70;99.90
5711;DHT22;61291;52.524;13.422;2022-10-26T02:54:46;8.80;99.90
5711;DHT22;61291;52.524;13.422;2022-10-26T02:57:22;8.90;99.90
5711;DHT22;61291;52.524;13.422;2022-10-26T02:59:49;8.90;99.90
5711;DHT22;61291;52.524;13.422;2022-10-26T03:02:18;9.00;99.90
5711;DHT22;61291;52.524;13.422;2022-10-26T03:04:45;9.00;99.90
5711;DHT22;61291;52.524;13.422;2022-10-26T03:07:12;8.90;99.90
5711;DHT22;61291;52.524;13.422;2022-10-26T03:09:44;8.90;99.90
5711;DHT22;61291;52.524;13.422;2022-10-26T03:12:09;8.90;99.90
5711;DHT22;61291;52.524;13.422;2022-10-26T03:14:34;8.80;99.90
5711;DHT22;61291;52.524;13.422;2022-10-26T03:17:00;8.70;99.90
5711;DHT22;61291;52.524;13.422;2022-10-26T03:19:25;8.60;99.90
5711;DHT22;61291;52.524;13.422;2022-10-26T03:21:51;8.70;99.90
5711;DHT22;61291;52.524;13.422;2022-10-26T03:24:16;8.70;99.90
5711;DHT22;61291;52.524;13.422;2022-10-26T03:26:42;8.70;99.90
5711;DHT22;61291;52.524;13.422;2022-10-26T03:29:07;8.70;99.90
5711;DHT22;61291;52.524;13.422;2022-10-26T03:31:33;8.80;99.90
5711;DHT22;61291;52.524;13.422;2022-10-26T03:33:59;8.80;99.90
5711;DHT22;61291;52.524;13.422;2022-10-26T03:36:24;8.80;99.90
5711;DHT22;61291;52.524;13.422;2022-10-26T03:38:49;8.80;99.90
5711;DHT22;61291;52.524;13.422;2022-10-26T03:41:15;8.80;99.90
5711;DHT22;61291;52.524;13.422;2022-10-26T03:43:40;8.80;99.90
5711;DHT22;61291;52.524;13.422;2022-10-26T03:46:06;8.80;99.90
5711;DHT22;61291;52.524;13.422;2022-10-26T03:48:31;8.80;99.90
5711;DHT22;61291;52.524;13.422;2022-10-26T03:50:57;8.80;99.90
5711;DHT22;61291;52.524;13.422;2022-10-26T03:53:24;8.80;99.90
5711;DHT22;61291;52.524;13.422;2022-10-26T03:55:49;8.80;99.90
5711;DHT22;61291;52.524;13.422;2022-10-26T03:58:15;8.70;99.90
5711;DHT22;61291;52.524;13.422;2022-10-26T04:00:40;8.70;99.90
5711;DHT22;61291;52.524;13.422;2022-10-26T04:03:05;8.70;99.90
5711;DHT22;61291;52.524;13.422;2022-10-26T04:05:31;8.60;99.90
5711;DHT22;61291;52.524;13.422;2022-10-26T04:08:01;8.60;99.90
5711;DHT22;61291;52.524;13.422;2022-10-26T04:10:30;8.50;99.90
5711;DHT22;61291;52.524;13.422;2022-10-26T04:12:55;8.50;99.90
5711;DHT22;61291;52.524;13.422;2022-10-26T04:15:23;8.50;99.90
5711;DHT22;61291;52.524;13.422;2022-10-26T04:17:55;8.50;99.90
5711;DHT22;61291;52.524;13.422;2022-10-26T04:20:21;8.60;99.90
5711;DHT22;61291;52.524;13.422;2022-10-26T04:22:46;8.60;99.90
5711;DHT22;61291;52.524;13.422;2022-10-26T04:25:12;8.70;99.90
5711;DHT22;61291;52.524;13.422;2022-10-26T04:27:37;8.60;99.90
5711;DHT22;61291;52.524;13.422;2022-10-26T04:30:03;8.70;99.90
5711;DHT22;61291;52.524;13.422;2022-10-26T04:32:32;8.70;99.90
5711;DHT22;61291;52.524;13.422;2022-10-26T04:34:57;8.70;99.90
5711;DHT22;61291;52.524;13.422;2022-10-26T04:37:23;8.70;99.90
5711;DHT22;61291;52.524;13.422;2022-10-26T04:39:48;8.70;99.90
5711;DHT22;61291;52.524;13.422;2022-10-26T04:42:14;8.70;99.90
5711;DHT22;61291;52.524;13.422;2022-10-26T04:44:39;8.70;99.90
5711;DHT22;61291;52.524;13.422;2022-10-26T04:47:05;8.70;99.90
5711;DHT22;61291;52.524;13.422;2022-10-26T04:49:30;8.80;99.90
5711;DHT22;61291;52.524;13.422;2022-10-26T04:51:55;8.80;99.90
5711;DHT22;61291;52.524;13.422;2022-10-26T04:54:21;8.80;99.90
5711;DHT22;61291;52.524;13.422;2022-10-26T04:56:46;8.70;99.90
5711;DHT22;61291;52.524;13.422;2022-10-26T04:59:24;8.70;99.90
5711;DHT22;61291;52.524;13.422;2022-10-26T05:01:50;8.60;99.90
5711;DHT22;61291;52.524;13.422;2022-10-26T05:04:15;8.60;99.90
5711;DHT22;61291;52.524;13.422;2022-10-26T05:06:41;8.60;99.90
5711;DHT22;61291;52.524;13.422;2022-10-26T05:09:06;8.60;99.90
5711;DHT22;61291;52.524;13.422;2022-10-26T05:11:32;8.60;99.90
5711;DHT22;61291;52.524;13.422;2022-10-26T05:13:57;8.60;99.90
5711;DHT22;61291;52.524;13.422;2022-10-26T05:16:22;8.70;99.90
5711;DHT22;61291;52.524;13.422;2022-10-26T05:18:48;8.70;99.90
5711;DHT22;61291;52.524;13.422;2022-10-26T05:21:14;8.70;99.90
5711;DHT22;61291;52.524;13.422;2022-10-26T05:23:48;8.60;99.90
5711;DHT22;61291;52.524;13.422;2022-10-26T05:26:15;8.60;99.90
5711;DHT22;61291;52.524;13.422;2022-10-26T05:28:41;8.60;99.90
5711;DHT22;61291;52.524;13.422;2022-10-26T05:31:06;8.70;99.90
5711;DHT22;61291;52.524;13.422;2022-10-26T05:33:31;8.70;99.90
5711;DHT22;61291;52.524;13.422;2022-10-26T05:35:57;8.60;99.90
5711;DHT22;61291;52.524;13.422;2022-10-26T05:38:22;8.60;99.90
5711;DHT22;61291;52.524;13.422;2022-10-26T05:40:49;8.60;99.90
5711;DHT22;61291;52.524;13.422;2022-10-26T05:43:15;8.60;99.90
5711;DHT22;61291;52.524;13.422;2022-10-26T05:45:41;8.60;99.90
5711;DHT22;61291;52.524;13.422;2022-10-26T05:48:06;8.60;99.90
5711;DHT22;61291;52.524;13.422;2022-10-26T05:50:32;8.60;99.90
5711;DHT22;61291;52.524;13.422;2022-10-26T05:52:57;8.60;99.90
5711;DHT22;61291;52.524;13.422;2022-10-26T05:55:23;8.70;99.90
5711;DHT22;61291;52.524;13.422;2022-10-26T05:57:49;8.70;99.90
5711;DHT22;61291;52.524;13.422;2022-10-26T06:00:22;8.70;99.90
5711;DHT22;61291;52.524;13.422;2022-10-26T06:05:33;8.70;99.90
5711;DHT22;61291;52.524;13.422;2022-10-26T06:08:00;8.70;99.90
5711;DHT22;61291;52.524;13.422;2022-10-26T06:10:26;8.70;99.90
5711;DHT22;61291;52.524;13.422;2022-10-26T06:12:51;8.80;99.90
5711;DHT22;61291;52.524;13.422;2022-10-26T06:15:21;8.80;99.90
5711;DHT22;61291;52.524;13.422;2022-10-26T06:18:13;8.80;99.90
5711;DHT22;61291;52.524;13.422;2022-10-26T06:23:59;8.90;99.90
5711;DHT22;61291;52.524;13.422;2022-10-26T06:26:57;9.10;99.90
5711;DHT22;61291;52.524;13.422;2022-10-26T06:29:46;9.20;99.90
5711;DHT22;61291;52.524;13.422;2022-10-26T06:32:15;9.20;99.90
5711;DHT22;61291;52.524;13.422;2022-10-26T06:34:44;9.20;99.90
5711;DHT22;61291;52.524;13.422;2022-10-26T06:37:11;9.30;99.90
5711;DHT22;61291;52.524;13.422;2022-10-26T06:39:41;9.30;99.90
5711;DHT22;61291;52.524;13.422;2022-10-26T06:42:09;9.40;99.90
5711;DHT22;61291;52.524;13.422;2022-10-26T06:44:36;9.40;99.90
5711;DHT22;61291;52.524;13.422;2022-10-26T06:47:06;9.40;99.90
5711;DHT22;61291;52.524;13.422;2022-10-26T06:52:44;9.60;99.90
5711;DHT22;61291;52.524;13.422;2022-10-26T06:55:14;9.60;99.90
5711;DHT22;61291;52.524;13.422;2022-10-26T06:57:41;9.70;99.90
5711;DHT22;61291;52.524;13.422;2022-10-26T07:00:19;9.70;99.90
5711;DHT22;61291;52.524;13.422;2022-10-26T07:02:45;9.70;99.90
5711;DHT22;61291;52.524;13.422;2022-10-26T07:05:12;9.80;99.90
5711;DHT22;61291;52.524;13.422;2022-10-26T07:07:42;9.80;99.90
5711;DHT22;61291;52.524;13.422;2022-10-26T07:10:09;10.00;99.90
5711;DHT22;61291;52.524;13.422;2022-10-26T07:12:36;9.90;99.90
5711;DHT22;61291;52.524;13.422;2022-10-26T07:15:01;10.00;99.90
5711;DHT22;61291;52.524;13.422;2022-10-26T07:17:27;10.00;99.90
5711;DHT22;61291;52.524;13.422;2022-10-26T07:19:54;10.00;99.90
5711;DHT22;61291;52.524;13.422;2022-10-26T07:22:20;10.10;99.90
5711;DHT22;61291;52.524;13.422;2022-10-26T07:24:45;10.10;99.90
5711;DHT22;61291;52.524;13.422;2022-10-26T07:27:15;10.20;99.90
5711;DHT22;61291;52.524;13.422;2022-10-26T07:29:41;10.30;99.90
5711;DHT22;61291;52.524;13.422;2022-10-26T07:32:06;10.30;99.90
5711;DHT22;61291;52.524;13.422;2022-10-26T07:34:32;10.40;99.90
5711;DHT22;61291;52.524;13.422;2022-10-26T07:37:00;10.50;99.90
5711;DHT22;61291;52.524;13.422;2022-10-26T07:39:26;10.60;99.90
5711;DHT22;61291;52.524;13.422;2022-10-26T07:41:52;10.60;99.90
5711;DHT22;61291;52.524;13.422;2022-10-26T07:44:17;10.70;99.90
5711;DHT22;61291;52.524;13.422;2022-10-26T07:46:43;10.60;99.90
5711;DHT22;61291;52.524;13.422;2022-10-26T07:49:09;10.70;99.90
5711;DHT22;61291;52.524;13.422;2022-10-26T07:51:35;10.70;99.90
5711;DHT22;61291;52.524;13.422;2022-10-26T07:54:00;10.70;99.90
5711;DHT22;61291;52.524;13.422;2022-10-26T07:56:25;10.80;99.90
5711;DHT22;61291;52.524;13.422;2022-10-26T07:58:52;10.80;99.90
5711;DHT22;61291;52.524;13.422;2022-10-26T08:01:18;10.90;99.90
5711;DHT22;61291;52.524;13.422;2022-10-26T08:03:43;10.90;99.90
5711;DHT22;61291;52.524;13.422;2022-10-26T08:06:09;11.00;99.90
5711;DHT22;61291;52.524;13.422;2022-10-26T08:08:35;11.00;99.90
5711;DHT22;61291;52.524;13.422;2022-10-26T08:11:00;11.10;99.90
5711;DHT22;61291;52.524;13.422;2022-10-26T08:13:26;11.10;99.90
5711;DHT22;61291;52.524;13.422;2022-10-26T08:16:03;11.20;99.90
5711;DHT22;61291;52.524;13.422;2022-10-26T08:18:29;11.30;99.90
5711;DHT22;61291;52.524;13.422;2022-10-26T08:20:54;11.30;99.90
5711;DHT22;61291;52.524;13.422;2022-10-26T08:23:25;11.40;99.90
5711;DHT22;61291;52.524;13.422;2022-10-26T08:25:50;11.40;99.90
5711;DHT22;61291;52.524;13.422;2022-10-26T08:28:16;11.50;99.90
5711;DHT22;61291;52.524;13.422;2022-10-26T08:30:41;11.60;99.90
5711;DHT22;61291;52.524;13.422;2022-10-26T08:33:07;11.70;99.90
5711;DHT22;61291;52.524;13.422;2022-10-26T08:35:34;11.70;99.90
5711;DHT22;61291;52.524;13.422;2022-10-26T08:37:59;11.70;99.90
5711;DHT22;61291;52.524;13.422;2022-10-26T08:40:33;11.80;99.90
5711;DHT22;61291;52.524;13.422;2022-10-26T08:43:19;11.90;99.90
5711;DHT22;61291;52.524;13.422;2022-10-26T08:45:56;12.00;99.90
5711;DHT22;61291;52.524;13.422;2022-10-26T08:48:26;12.00;99.90
5711;DHT22;61291;52.524;13.422;2022-10-26T08:50:56;12.00;99.90
5711;DHT22;61291;52.524;13.422;2022-10-26T08:56:10;12.20;99.90
5711;DHT22;61291;52.524;13.422;2022-10-26T08:58:41;12.10;99.90
5711;DHT22;61291;52.524;13.422;2022-10-26T09:01:09;12.20;99.90
5711;DHT22;61291;52.524;13.422;2022-10-26T09:03:34;12.20;99.90
5711;DHT22;61291;52.524;13.422;2022-10-26T09:08:53;12.40;99.90
5711;DHT22;61291;52.524;13.422;2022-10-26T09:11:39;12.40;99.90
5711;DHT22;61291;52.524;13.422;2022-10-26T09:20:03;12.60;99.90
5711;DHT22;61291;52.524;13.422;2022-10-26T09:22:47;12.70;99.90
5711;DHT22;61291;52.524;13.422;2022-10-26T09:25:19;12.80;99.90
5711;DHT22;61291;52.524;13.422;2022-10-26T09:27:55;12.90;99.90
5711;DHT22;61291;52.524;13.422;2022-10-26T09:30:21;12.90;99.90
5711;DHT22;61291;52.524;13.422;2022-10-26T09:33:04;13.00;99.90
5711;DHT22;61291;52.524;13.422;2022-10-26T09:35:42;13.10;99.90
5711;DHT22;61291;52.524;13.422;2022-10-26T09:38:31;13.10;99.90
5711;DHT22;61291;52.524;13.422;2022-10-26T09:41:31;13.20;99.90
5711;DHT22;61291;52.524;13.422;2022-10-26T09:44:11;13.30;99.90
5711;DHT22;61291;52.524;13.422;2022-10-26T09:46:52;13.40;99.90
5711;DHT22;61291;52.524;13.422;2022-10-26T09:49:23;13.40;99.90
5711;DHT22;61291;52.524;13.422;2022-10-26T09:51:54;13.50;99.90
5711;DHT22;61291;52.524;13.422;2022-10-26T09:54:20;13.60;99.90
5711;DHT22;61291;52.524;13.422;2022-10-26T09:56:53;13.70;99.90
5711;DHT22;61291;52.524;13.422;2022-10-26T09:59:22;13.70;99.90
5711;DHT22;61291;52.524;13.422;2022-10-26T10:01:48;13.80;99.90
5711;DHT22;61291;52.524;13.422;2022-10-26T10:09:25;14.00;99.90
5711;DHT22;61291;52.524;13.422;2022-10-26T10:11:54;14.10;99.90
5711;DHT22;61291;52.524;13.422;2022-10-26T10:14:23;14.10;99.90
5711;DHT22;61291;52.524;13.422;2022-10-26T10:16:54;14.20;99.90
5711;DHT22;61291;52.524;13.422;2022-10-26T10:19:22;14.30;99.90
5711;DHT22;61291;52.524;13.422;2022-10-26T10:21:50;14.40;99.90
5711;DHT22;61291;52.524;13.422;2022-10-26T10:24:28;14.50;99.90
5711;DHT22;61291;52.524;13.422;2022-10-26T10:26:56;14.60;99.90
5711;DHT22;61291;52.524;13.422;2022-10-26T10:29:25;14.70;99.90
5711;DHT22;61291;52.524;13.422;2022-10-26T10:31:55;14.80;99.90
5711;DHT22;61291;52.524;13.422;2022-10-26T10:34:21;14.80;99.90
5711;DHT22;61291;52.524;13.422;2022-10-26T10:36:48;14.90;99.90
5711;DHT22;61291;52.524;13.422;2022-10-26T10:39:39;15.00;99.90
5711;DHT22;61291;52.524;13.422;2022-10-26T10:42:24;15.00;99.90
5711;DHT22;61291;52.524;13.422;2022-10-26T10:44:54;15.20;99.90
5711;DHT22;61291;52.524;13.422;2022-10-26T10:47:27;15.20;99.90
5711;DHT22;61291;52.524;13.422;2022-10-26T10:50:06;15.30;99.90
5711;DHT22;61291;52.524;13.422;2022-10-26T10:52:35;15.40;99.90
5711;DHT22;61291;52.524;13.422;2022-10-26T10:58:06;15.50;99.90
5711;DHT22;61291;52.524;13.422;2022-10-26T11:00:35;15.60;99.90
5711;DHT22;61291;52.524;13.422;2022-10-26T11:03:09;15.70;99.90
5711;DHT22;61291;52.524;13.422;2022-10-26T11:06:04;15.70;99.90
5711;DHT22;61291;52.524;13.422;2022-10-26T11:08:49;15.70;99.90
5711;DHT22;61291;52.524;13.422;2022-10-26T11:11:36;15.80;99.90
5711;DHT22;61291;52.524;13.422;2022-10-26T11:14:13;15.80;99.90
5711;DHT22;61291;52.524;13.422;2022-10-26T11:17:15;15.80;99.90
5711;DHT22;61291;52.524;13.422;2022-10-26T11:19:54;15.90;99.90
5711;DHT22;61291;52.524;13.422;2022-10-26T11:23:17;15.90;99.90
5711;DHT22;61291;52.524;13.422;2022-10-26T11:25:27;16.00;99.90
5711;DHT22;61291;52.524;13.422;2022-10-26T11:28:11;16.00;99.90
5711;DHT22;61291;52.524;13.422;2022-10-26T11:30:44;16.00;99.90
5711;DHT22;61291;52.524;13.422;2022-10-26T11:33:18;16.10;99.90
5711;DHT22;61291;52.524;13.422;2022-10-26T11:35:55;16.20;99.90
5711;DHT22;61291;52.524;13.422;2022-10-26T11:43:46;16.20;99.90
5711;DHT22;61291;52.524;13.422;2022-10-26T11:46:31;16.30;99.90
5711;DHT22;61291;52.524;13.422;2022-10-26T11:57:04;16.50;99.90
5711;DHT22;61291;52.524;13.422;2022-10-26T11:59:34;16.40;99.90
5711;DHT22;61291;52.524;13.422;2022-10-26T12:02:05;16.50;99.90
5711;DHT22;61291;52.524;13.422;2022-10-26T12:04:37;16.60;99.90
5711;DHT22;61291;52.524;13.422;2022-10-26T12:07:09;16.60;99.90
5711;DHT22;61291;52.524;13.422;2022-10-26T12:09:38;16.70;99.90
5711;DHT22;61291;52.524;13.422;2022-10-26T12:12:22;16.80;99.90
5711;DHT22;61291;52.524;13.422;2022-10-26T12:17:34;16.90;99.90
5711;DHT22;61291;52.524;13.422;2022-10-26T12:20:29;16.90;99.90
5711;DHT22;61291;52.524;13.422;2022-10-26T12:23:05;17.00;99.90
5711;DHT22;61291;52.524;13.422;2022-10-26T12:25:33;16.90;99.90
5711;DHT22;61291;52.524;13.422;2022-10-26T12:27:58;16.90;99.90
5711;DHT22;61291;52.524;13.422;2022-10-26T12:30:26;17.00;99.90
5711;DHT22;61291;52.524;13.422;2022-10-26T12:33:02;17.10;99.90
5711;DHT22;61291;52.524;13.422;2022-10-26T12:35:47;17.20;99.90
5711;DHT22;61291;52.524;13.422;2022-10-26T12:40:55;17.30;99.90
5711;DHT22;61291;52.524;13.422;2022-10-26T12:43:36;17.30;99.90
5711;DHT22;61291;52.524;13.422;2022-10-26T12:48:53;17.30;99.90
5711;DHT22;61291;52.524;13.422;2022-10-26T12:57:24;17.40;99.90
5711;DHT22;61291;52.524;13.422;2022-10-26T13:00:03;17.40;99.90
5711;DHT22;61291;52.524;13.422;2022-10-26T13:05:33;17.40;99.90
5711;DHT22;61291;52.524;13.422;2022-10-26T13:08:05;17.50;99.90
5711;DHT22;61291;52.524;13.422;2022-10-26T13:10:32;17.50;99.90
5711;DHT22;61291;52.524;13.422;2022-10-26T13:12:59;17.40;99.90
5711;DHT22;61291;52.524;13.422;2022-10-26T13:15:39;17.50;99.90
5711;DHT22;61291;52.524;13.422;2022-10-26T13:18:08;17.50;99.90
5711;DHT22;61291;52.524;13.422;2022-10-26T13:20:36;17.50;99.90
5711;DHT22;61291;52.524;13.422;2022-10-26T13:23:22;17.50;99.90
5711;DHT22;61291;52.524;13.422;2022-10-26T13:26:10;17.50;99.90
5711;DHT22;61291;52.524;13.422;2022-10-26T13:34:01;17.50;99.90
5711;DHT22;61291;52.524;13.422;2022-10-26T13:36:35;17.50;99.90
5711;DHT22;61291;52.524;13.422;2022-10-26T13:39:09;17.50;99.90
5711;DHT22;61291;52.524;13.422;2022-10-26T13:41:38;17.50;99.90
5711;DHT22;61291;52.524;13.422;2022-10-26T13:44:06;17.50;99.90
5711;DHT22;61291;52.524;13.422;2022-10-26T13:46:37;17.50;99.90
5711;DHT22;61291;52.524;13.422;2022-10-26T13:49:14;17.60;99.90
5711;DHT22;61291;52.524;13.422;2022-10-26T13:51:46;17.50;99.90
5711;DHT22;61291;52.524;13.422;2022-10-26T13:57:03;17.60;99.90
5711;DHT22;61291;52.524;13.422;2022-10-26T13:59:31;17.60;99.90
5711;DHT22;61291;52.524;13.422;2022-10-26T14:02:15;17.60;99.90
5711;DHT22;61291;52.524;13.422;2022-10-26T14:04:45;17.60;99.90
5711;DHT22;61291;52.524;13.422;2022-10-26T14:07:17;17.60;99.90
5711;DHT22;61291;52.524;13.422;2022-10-26T14:09:49;17.60;99.90
5711;DHT22;61291;52.524;13.422;2022-10-26T14:12:15;17.60;99.90
5711;DHT22;61291;52.524;13.422;2022-10-26T14:14:41;17.60;99.90
5711;DHT22;61291;52.524;13.422;2022-10-26T14:17:19;17.50;99.90
5711;DHT22;61291;52.524;13.422;2022-10-26T14:19:47;17.50;99.90
5711;DHT22;61291;52.524;13.422;2022-10-26T14:22:40;17.50;99.90
5711;DHT22;61291;52.524;13.422;2022-10-26T14:25:23;17.60;99.90
5711;DHT22;61291;52.524;13.422;2022-10-26T14:27:49;17.60;99.90
5711;DHT22;61291;52.524;13.422;2022-10-26T14:30:26;17.60;99.90
5711;DHT22;61291;52.524;13.422;2022-10-26T14:32:52;17.60;99.90
5711;DHT22;61291;52.524;13.422;2022-10-26T14:35:22;17.60;99.90
5711;DHT22;61291;52.524;13.422;2022-10-26T14:37:52;17.60;99.90
5711;DHT22;61291;52.524;13.422;2022-10-26T14:40:20;17.50;99.90
5711;DHT22;61291;52.524;13.422;2022-10-26T14:42:52;17.40;99.90
5711;DHT22;61291;52.524;13.422;2022-10-26T14:45:22;17.30;99.90
5711;DHT22;61291;52.524;13.422;2022-10-26T14:47:49;17.20;99.90
5711;DHT22;61291;52.524;13.422;2022-10-26T14:50:22;17.10;99.90
5711;DHT22;61291;52.524;13.422;2022-10-26T14:52:50;17.10;99.90
5711;DHT22;61291;52.524;13.422;2022-10-26T14:55:16;17.00;99.90
5711;DHT22;61291;52.524;13.422;2022-10-26T14:57:44;16.90;99.90
5711;DHT22;61291;52.524;13.422;2022-10-26T15:00:21;16.90;99.90
5711;DHT22;61291;52.524;13.422;2022-10-26T15:02:49;16.80;99.90
5711;DHT22;61291;52.524;13.422;2022-10-26T15:05:30;16.70;99.90
5711;DHT22;61291;52.524;13.422;2022-10-26T15:07:58;16.60;99.90
5711;DHT22;61291;52.524;13.422;2022-10-26T15:13:19;16.50;99.90
5711;DHT22;61291;52.524;13.422;2022-10-26T15:15:46;16.40;99.90
5711;DHT22;61291;52.524;13.422;2022-10-26T15:18:23;16.30;99.90
5711;DHT22;61291;52.524;13.422;2022-10-26T15:20:50;16.20;99.90
5711;DHT22;61291;52.524;13.422;2022-10-26T15:23:16;16.10;99.90
5711;DHT22;61291;52.524;13.422;2022-10-26T15:28:27;16.10;99.90
5711;DHT22;61291;52.524;13.422;2022-10-26T15:33:38;16.10;99.90
5711;DHT22;61291;52.524;13.422;2022-10-26T15:38:32;16.20;99.90
5711;DHT22;61291;52.524;13.422;2022-10-26T15:40:58;16.20;99.90
5711;DHT22;61291;52.524;13.422;2022-10-26T15:43:23;16.20;99.90
5711;DHT22;61291;52.524;13.422;2022-10-26T15:45:49;16.10;99.90
5711;DHT22;61291;52.524;13.422;2022-10-26T15:48:23;16.00;99.90
5711;DHT22;61291;52.524;13.422;2022-10-26T15:50:53;15.90;99.90
5711;DHT22;61291;52.524;13.422;2022-10-26T15:53:21;15.80;99.90
5711;DHT22;61291;52.524;13.422;2022-10-26T15:55:49;15.60;99.90
5711;DHT22;61291;52.524;13.422;2022-10-26T15:58:15;15.60;99.90
5711;DHT22;61291;52.524;13.422;2022-10-26T16:00:41;15.50;99.90
5711;DHT22;61291;52.524;13.422;2022-10-26T16:03:13;15.40;99.90
5711;DHT22;61291;52.524;13.422;2022-10-26T16:05:39;15.40;99.90
5711;DHT22;61291;52.524;13.422;2022-10-26T16:08:04;15.20;99.90
5711;DHT22;61291;52.524;13.422;2022-10-26T16:10:30;15.20;99.90
5711;DHT22;61291;52.524;13.422;2022-10-26T16:12:55;15.10;99.90
5711;DHT22;61291;52.524;13.422;2022-10-26T16:15:22;15.00;99.90
5711;DHT22;61291;52.524;13.422;2022-10-26T16:17:49;15.00;99.90
5711;DHT22;61291;52.524;13.422;2022-10-26T16:20:22;14.90;99.90
5711;DHT22;61291;52.524;13.422;2022-10-26T16:22:49;15.00;99.90
5711;DHT22;61291;52.524;13.422;2022-10-26T16:25:17;15.00;99.90
5711;DHT22;61291;52.524;13.422;2022-10-26T16:27:43;15.00;99.90
5711;DHT22;61291;52.524;13.422;2022-10-26T16:30:10;15.10;99.90
5711;DHT22;61291;52.524;13.422;2022-10-26T16:32:37;15.10;99.90
5711;DHT22;61291;52.524;13.422;2022-10-26T16:35:02;15.20;99.90
5711;DHT22;61291;52.524;13.422;2022-10-26T16:37:28;15.20;99.90
5711;DHT22;61291;52.524;13.422;2022-10-26T16:39:54;15.20;99.90
5711;DHT22;61291;52.524;13.422;2022-10-26T16:42:20;15.30;99.90
5711;DHT22;61291;52.524;13.422;2022-10-26T16:44:45;15.30;99.90
5711;DHT22;61291;52.524;13.422;2022-10-26T16:47:10;15.30;99.90
5711;DHT22;61291;52.524;13.422;2022-10-26T16:49:36;15.40;99.90
5711;DHT22;61291;52.524;13.422;2022-10-26T16:52:02;15.40;99.90
5711;DHT22;61291;52.524;13.422;2022-10-26T16:54:29;15.40;99.90
5711;DHT22;61291;52.524;13.422;2022-10-26T16:56:55;15.40;99.90
5711;DHT22;61291;52.524;13.422;2022-10-26T16:59:20;15.40;99.90
5711;DHT22;61291;52.524;13.422;2022-10-26T17:01:46;15.40;99.90
5711;DHT22;61291;52.524;13.422;2022-10-26T17:04:11;15.40;99.90
5711;DHT22;61291;52.524;13.422;2022-10-26T17:06:37;15.40;99.90
5711;DHT22;61291;52.524;13.422;2022-10-26T17:09:02;15.40;99.90
5711;DHT22;61291;52.524;13.422;2022-10-26T17:11:28;15.40;99.90
5711;DHT22;61291;52.524;13.422;2022-10-26T17:13:54;15.50;99.90
5711;DHT22;61291;52.524;13.422;2022-10-26T17:16:21;15.40;99.90
5711;DHT22;61291;52.524;13.422;2022-10-26T17:18:47;15.40;99.90
5711;DHT22;61291;52.524;13.422;2022-10-26T17:21:15;15.40;99.90
5711;DHT22;61291;52.524;13.422;2022-10-26T17:23:42;15.40;99.90
5711;DHT22;61291;52.524;13.422;2022-10-26T17:26:10;15.40;99.90
5711;DHT22;61291;52.524;13.422;2022-10-26T17:28:36;15.50;99.90
5711;DHT22;61291;52.524;13.422;2022-10-26T17:31:10;15.50;99.90
5711;DHT22;61291;52.524;13.422;2022-10-26T17:33:37;15.50;99.90
5711;DHT22;61291;52.524;13.422;2022-10-26T17:36:04;15.50;99.90
5711;DHT22;61291;52.524;13.422;2022-10-26T17:38:31;15.60;99.90